Bombay Beach, California
Current Conditions -  °F | °C
As of 12:53 PM on Friday 28 Nov 2014 (Local Time) from KIPL Reporting Station
Clear Clear  
Wind Chill: 80°   Ceiling: Unl
Heat Index: 80°   Visibility: 10mi
Dew Point: 26°   Wind: 0mph
Humidity: 14%   Direction: NA
Pressure: 29.89"   Gusts: NA
Location:  33.3324°N, 115.621°W
Report Text: KIPL 282053Z AUTO 00000KT 10SM CLR 27/M03 A2989 RMK AO2 SLP122 T02671033 58035
Loading
Personal Weather Stations






























Interactive Weather Map New forecast layout! Learn more

10-Day Weather Forecast

Advertisements
Track Severe Weather on mobile